EZY1711 EGKK-EGNS
Flight info
| Callsign | EZY1711 |
|---|---|
| Flight time | 0h 50m |
| Altitude | 34000 |
| Route | LAM L10 BPK UN601 LESTA UP6 RODOL UL28 AGLIL M146 LUSOD DCT IOM |
| Aircraft | A320/M-SDE2E3FGHIJ1RWXYZ/LB1 |
Departure
| Time | 2026-05-05 20:17 |
|---|---|
| Airport | London Gatwick Airport (EGKK) |
Arrival
| Time | 2026-05-05 21:08 |
|---|---|
| Airport | Isle of Man Airport (EGNS) |
| Time | Latitude | Longitude | Altitude | Speed | Heading |
|---|---|---|---|---|---|
| 2026-05-05 19:08 | 51.15838 | -0.17631 | 204 ft | 0 kts | 348° |
| 2026-05-05 19:10 | 51.15861 | -0.17938 | 204 ft | 0 kts | 78° |
| 2026-05-05 19:11 | 51.15861 | -0.17937 | 204 ft | 0 kts | 78° |
| 2026-05-05 19:51 | 51.15856 | -0.17966 | 213 ft | 4 kts | 63° |
| 2026-05-05 19:51 | 51.15843 | -0.18002 | 215 ft | 4 kts | 76° |
| 2026-05-05 19:52 | 51.15840 | -0.18036 | 211 ft | 4 kts | 89° |
| 2026-05-05 19:52 | 51.15844 | -0.18074 | 212 ft | 4 kts | 136° |
| 2026-05-05 19:52 | 51.15852 | -0.18083 | 212 ft | 0 kts | 168° |
| 2026-05-05 20:00 | 51.15815 | -0.18070 | 213 ft | 11 kts | 167° |
| 2026-05-05 20:00 | 51.15746 | -0.18046 | 215 ft | 9 kts | 167° |
| 2026-05-05 20:01 | 51.15692 | -0.18060 | 207 ft | 8 kts | 222° |
| 2026-05-05 20:01 | 51.15675 | -0.18132 | 208 ft | 7 kts | 257° |
| 2026-05-05 20:01 | 51.15662 | -0.18237 | 215 ft | 11 kts | 258° |
| 2026-05-05 20:01 | 51.15639 | -0.18338 | 206 ft | 9 kts | 228° |
| 2026-05-05 20:02 | 51.15580 | -0.18343 | 207 ft | 10 kts | 169° |
| 2026-05-05 20:02 | 51.15515 | -0.18321 | 215 ft | 9 kts | 167° |
| 2026-05-05 20:02 | 51.15459 | -0.18301 | 212 ft | 8 kts | 167° |
| 2026-05-05 20:02 | 51.15387 | -0.18276 | 207 ft | 11 kts | 168° |
| 2026-05-05 20:03 | 51.15317 | -0.18253 | 204 ft | 9 kts | 168° |
| 2026-05-05 20:03 | 51.15250 | -0.18230 | 204 ft | 10 kts | 167° |
| 2026-05-05 20:03 | 51.15194 | -0.18259 | 208 ft | 8 kts | 237° |
| 2026-05-05 20:03 | 51.15181 | -0.18361 | 206 ft | 12 kts | 258° |
| 2026-05-05 20:04 | 51.15165 | -0.18481 | 205 ft | 11 kts | 257° |
| 2026-05-05 20:04 | 51.15150 | -0.18589 | 203 ft | 9 kts | 257° |
| 2026-05-05 20:04 | 51.15134 | -0.18700 | 203 ft | 12 kts | 257° |
| 2026-05-05 20:04 | 51.15112 | -0.18856 | 214 ft | 16 kts | 257° |
| 2026-05-05 20:05 | 51.15091 | -0.19013 | 204 ft | 13 kts | 258° |
| 2026-05-05 20:05 | 51.15072 | -0.19150 | 207 ft | 12 kts | 257° |
| 2026-05-05 20:05 | 51.15055 | -0.19273 | 214 ft | 11 kts | 258° |
| 2026-05-05 20:05 | 51.15036 | -0.19415 | 207 ft | 17 kts | 258° |
| 2026-05-05 20:06 | 51.15013 | -0.19586 | 212 ft | 15 kts | 258° |
| 2026-05-05 20:06 | 51.14992 | -0.19740 | 204 ft | 13 kts | 258° |
| 2026-05-05 20:06 | 51.14973 | -0.19878 | 213 ft | 12 kts | 258° |
| 2026-05-05 20:06 | 51.14956 | -0.20008 | 214 ft | 12 kts | 258° |
| 2026-05-05 20:07 | 51.14939 | -0.20127 | 213 ft | 10 kts | 257° |
| 2026-05-05 20:07 | 51.14923 | -0.20241 | 207 ft | 10 kts | 257° |
| 2026-05-05 20:07 | 51.14908 | -0.20345 | 207 ft | 9 kts | 257° |
| 2026-05-05 20:07 | 51.14895 | -0.20441 | 209 ft | 8 kts | 257° |
| 2026-05-05 20:08 | 51.14883 | -0.20526 | 211 ft | 7 kts | 257° |
| 2026-05-05 20:08 | 51.14873 | -0.20597 | 208 ft | 6 kts | 257° |
| 2026-05-05 20:08 | 51.14865 | -0.20657 | 203 ft | 5 kts | 257° |
| 2026-05-05 20:08 | 51.14858 | -0.20706 | 212 ft | 4 kts | 257° |
| 2026-05-05 20:09 | 51.14853 | -0.20743 | 206 ft | 3 kts | 257° |
| 2026-05-05 20:09 | 51.14850 | -0.20762 | 206 ft | 2 kts | 257° |
| 2026-05-05 20:09 | 51.14843 | -0.20812 | 203 ft | 7 kts | 258° |
| 2026-05-05 20:09 | 51.14834 | -0.20883 | 205 ft | 6 kts | 258° |
| 2026-05-05 20:10 | 51.14825 | -0.20948 | 214 ft | 8 kts | 258° |
| 2026-05-05 20:10 | 51.14813 | -0.21037 | 210 ft | 8 kts | 257° |
| 2026-05-05 20:10 | 51.14802 | -0.21116 | 204 ft | 7 kts | 256° |
| 2026-05-05 20:10 | 51.14785 | -0.21180 | 211 ft | 4 kts | 250° |
| 2026-05-05 20:11 | 51.14785 | -0.21182 | 212 ft | 0 kts | 251° |
| 2026-05-05 20:11 | 51.14779 | -0.21217 | 208 ft | 10 kts | 257° |
| 2026-05-05 20:11 | 51.14765 | -0.21320 | 204 ft | 8 kts | 258° |
| 2026-05-05 20:11 | 51.14762 | -0.21347 | 204 ft | 0 kts | 256° |
| 2026-05-05 20:12 | 51.14761 | -0.21349 | 204 ft | 3 kts | 256° |
| 2026-05-05 20:12 | 51.14731 | -0.21403 | 207 ft | 5 kts | 191° |
| 2026-05-05 20:12 | 51.14730 | -0.21403 | 206 ft | 0 kts | 189° |
| 2026-05-05 20:13 | 51.14729 | -0.21403 | 206 ft | 1 kts | 189° |
| 2026-05-05 20:13 | 51.14712 | -0.21400 | 204 ft | 0 kts | 169° |
| 2026-05-05 20:14 | 51.14701 | -0.21397 | 204 ft | 7 kts | 168° |
| 2026-05-05 20:14 | 51.14652 | -0.21344 | 212 ft | 8 kts | 149° |
| 2026-05-05 20:14 | 51.14629 | -0.21332 | 208 ft | 0 kts | 165° |
| 2026-05-05 20:16 | 51.14625 | -0.21330 | 204 ft | 7 kts | 165° |
| 2026-05-05 20:16 | 51.14528 | -0.21220 | 208 ft | 21 kts | 111° |
| 2026-05-05 20:16 | 51.14525 | -0.21147 | 203 ft | 0 kts | 82° |
| 2026-05-05 20:17 | 51.14552 | -0.20917 | 204 ft | 57 kts | 78° |
| 2026-05-05 20:17 | 51.14693 | -0.19941 | 208 ft | 121 kts | 78° |
| 2026-05-05 20:17 | 51.14897 | -0.18389 | 365 ft | 154 kts | 78° |
| 2026-05-05 20:17 | 51.15114 | -0.16704 | 1028 ft | 155 kts | 77° |
| 2026-05-05 20:18 | 51.15347 | -0.15016 | 1667 ft | 161 kts | 77° |
| 2026-05-05 20:18 | 51.15608 | -0.13150 | 1994 ft | 183 kts | 77° |
| 2026-05-05 20:18 | 51.15904 | -0.11040 | 2309 ft | 208 kts | 77° |
| 2026-05-05 20:18 | 51.16236 | -0.08657 | 2735 ft | 232 kts | 77° |
| 2026-05-05 20:19 | 51.16844 | -0.06171 | 3260 ft | 250 kts | 54° |
| 2026-05-05 20:19 | 51.17917 | -0.03945 | 4142 ft | 255 kts | 51° |
| 2026-05-05 20:19 | 51.19011 | -0.01700 | 5116 ft | 258 kts | 51° |
| 2026-05-05 20:19 | 51.20115 | 0.00574 | 6122 ft | 261 kts | 50° |
| 2026-05-05 20:20 | 51.21250 | 0.02917 | 7010 ft | 266 kts | 50° |
| 2026-05-05 20:20 | 51.22389 | 0.05270 | 7857 ft | 270 kts | 50° |
| 2026-05-05 20:20 | 51.23547 | 0.07665 | 8703 ft | 275 kts | 51° |
| 2026-05-05 20:20 | 51.24665 | 0.10183 | 9539 ft | 282 kts | 60° |
| 2026-05-05 20:21 | 51.25305 | 0.13168 | 10318 ft | 289 kts | 77° |
| 2026-05-05 20:21 | 51.25678 | 0.16338 | 11112 ft | 292 kts | 78° |
| 2026-05-05 20:21 | 51.26051 | 0.19541 | 11913 ft | 295 kts | 78° |
| 2026-05-05 20:21 | 51.26410 | 0.22632 | 12673 ft | 299 kts | 78° |
| 2026-05-05 20:22 | 51.26792 | 0.25909 | 13462 ft | 302 kts | 78° |
| 2026-05-05 20:22 | 51.27248 | 0.29192 | 14201 ft | 304 kts | 69° |
| 2026-05-05 20:22 | 51.28298 | 0.32113 | 14854 ft | 306 kts | 47° |
| 2026-05-05 20:22 | 51.29953 | 0.34219 | 15534 ft | 307 kts | 26° |
| 2026-05-05 20:23 | 51.31987 | 0.35231 | 16183 ft | 310 kts | 6° |
| 2026-05-05 20:23 | 51.34136 | 0.34971 | 16694 ft | 314 kts | 344° |
| 2026-05-05 20:23 | 51.36194 | 0.33725 | 17355 ft | 318 kts | 338° |
| 2026-05-05 20:23 | 51.38247 | 0.32387 | 18038 ft | 320 kts | 338° |
| 2026-05-05 20:24 | 51.40325 | 0.31028 | 18626 ft | 324 kts | 338° |
| 2026-05-05 20:24 | 51.42454 | 0.29633 | 19190 ft | 328 kts | 338° |
| 2026-05-05 20:24 | 51.44575 | 0.28246 | 19778 ft | 330 kts | 338° |
| 2026-05-05 20:24 | 51.46713 | 0.26854 | 20359 ft | 333 kts | 338° |
| 2026-05-05 20:25 | 51.48871 | 0.25451 | 20944 ft | 336 kts | 338° |
| 2026-05-05 20:25 | 51.51041 | 0.24039 | 21501 ft | 339 kts | 337° |
| 2026-05-05 20:25 | 51.53239 | 0.22609 | 22048 ft | 342 kts | 337° |
| 2026-05-05 20:25 | 51.55452 | 0.21168 | 22613 ft | 345 kts | 337° |
| 2026-05-05 20:26 | 51.57681 | 0.19714 | 23193 ft | 347 kts | 336° |
| 2026-05-05 20:26 | 51.59929 | 0.18246 | 23674 ft | 351 kts | 336° |
| 2026-05-05 20:26 | 51.62154 | 0.16687 | 24106 ft | 354 kts | 330° |
| 2026-05-05 20:26 | 51.64202 | 0.14495 | 24531 ft | 355 kts | 318° |
| 2026-05-05 20:27 | 51.65964 | 0.11648 | 24722 ft | 365 kts | 307° |
| 2026-05-05 20:27 | 51.67422 | 0.08216 | 24849 ft | 377 kts | 301° |
| 2026-05-05 20:27 | 51.68867 | 0.04603 | 24975 ft | 390 kts | 301° |
| 2026-05-05 20:27 | 51.70352 | 0.00881 | 25207 ft | 398 kts | 301° |
| 2026-05-05 20:28 | 51.71861 | -0.02896 | 25662 ft | 402 kts | 301° |
| 2026-05-05 20:28 | 51.73399 | -0.06655 | 26118 ft | 403 kts | 304° |
| 2026-05-05 20:28 | 51.75250 | -0.10089 | 26520 ft | 408 kts | 314° |
| 2026-05-05 20:28 | 51.77464 | -0.12988 | 26893 ft | 413 kts | 324° |
| 2026-05-05 20:29 | 51.79822 | -0.15288 | 27230 ft | 417 kts | 327° |
| 2026-05-05 20:29 | 51.82336 | -0.17671 | 27523 ft | 420 kts | 327° |
| 2026-05-05 20:29 | 51.84866 | -0.20076 | 27868 ft | 424 kts | 327° |
| 2026-05-05 20:29 | 51.87417 | -0.22509 | 28213 ft | 427 kts | 327° |
| 2026-05-05 20:30 | 51.89979 | -0.24960 | 28538 ft | 430 kts | 326° |
| 2026-05-05 20:30 | 51.92564 | -0.27438 | 28868 ft | 433 kts | 326° |
| 2026-05-05 20:30 | 51.95166 | -0.29936 | 29182 ft | 436 kts | 326° |
| 2026-05-05 20:30 | 51.97780 | -0.32449 | 29514 ft | 439 kts | 326° |
| 2026-05-05 20:31 | 52.00415 | -0.34982 | 29829 ft | 441 kts | 326° |
| 2026-05-05 20:31 | 52.03068 | -0.37529 | 30139 ft | 444 kts | 326° |
| 2026-05-05 20:31 | 52.05733 | -0.40093 | 30398 ft | 447 kts | 326° |
| 2026-05-05 20:31 | 52.08412 | -0.42676 | 30671 ft | 448 kts | 326° |
| 2026-05-05 20:32 | 52.11095 | -0.45268 | 30941 ft | 450 kts | 326° |
| 2026-05-05 20:32 | 52.13793 | -0.47879 | 31206 ft | 451 kts | 326° |
| 2026-05-05 20:32 | 52.16494 | -0.50499 | 31463 ft | 453 kts | 326° |
| 2026-05-05 20:32 | 52.19199 | -0.53125 | 31825 ft | 452 kts | 326° |
| 2026-05-05 20:33 | 52.21896 | -0.55740 | 32189 ft | 451 kts | 326° |
| 2026-05-05 20:33 | 52.24627 | -0.58389 | 32554 ft | 450 kts | 326° |
| 2026-05-05 20:33 | 52.27315 | -0.61000 | 32910 ft | 449 kts | 326° |
| 2026-05-05 20:33 | 52.29995 | -0.63611 | 33306 ft | 448 kts | 326° |
| 2026-05-05 20:34 | 52.32655 | -0.66214 | 33755 ft | 444 kts | 326° |
| 2026-05-05 20:34 | 52.35301 | -0.68809 | 33965 ft | 443 kts | 326° |
| 2026-05-05 20:34 | 52.37916 | -0.71373 | 34008 ft | 433 kts | 326° |
| 2026-05-05 20:35 | 52.43034 | -0.76399 | 34002 ft | 427 kts | 326° |
| 2026-05-05 20:35 | 52.48116 | -0.81408 | 34007 ft | 426 kts | 326° |
| 2026-05-05 20:36 | 52.53189 | -0.86426 | 34000 ft | 425 kts | 326° |
| 2026-05-05 20:36 | 52.58258 | -0.91436 | 34018 ft | 425 kts | 326° |
| 2026-05-05 20:37 | 52.63315 | -0.96457 | 34013 ft | 424 kts | 326° |
| 2026-05-05 20:37 | 52.68369 | -1.01486 | 34020 ft | 424 kts | 327° |
| 2026-05-05 20:38 | 52.73421 | -1.06610 | 34027 ft | 422 kts | 322° |
| 2026-05-05 20:38 | 52.77080 | -1.11873 | 34056 ft | 419 kts | 315° |
| 2026-05-05 20:39 | 52.81304 | -1.18509 | 34064 ft | 419 kts | 315° |
| 2026-05-05 20:39 | 52.85529 | -1.25138 | 34058 ft | 418 kts | 315° |
| 2026-05-05 20:40 | 52.89745 | -1.31770 | 34049 ft | 418 kts | 315° |
| 2026-05-05 20:40 | 52.93942 | -1.38421 | 34059 ft | 417 kts | 314° |
| 2026-05-05 20:41 | 52.98132 | -1.45066 | 34052 ft | 417 kts | 315° |
| 2026-05-05 20:41 | 53.02319 | -1.51720 | 34048 ft | 416 kts | 315° |
| 2026-05-05 20:42 | 53.06520 | -1.58428 | 34041 ft | 416 kts | 315° |
| 2026-05-05 20:42 | 53.10685 | -1.65085 | 34057 ft | 414 kts | 315° |
| 2026-05-05 20:43 | 53.14833 | -1.71732 | 34066 ft | 413 kts | 314° |
| 2026-05-05 20:43 | 53.18962 | -1.78377 | 34064 ft | 412 kts | 314° |
| 2026-05-05 20:44 | 53.23004 | -1.85143 | 34047 ft | 411 kts | 307° |
| 2026-05-05 20:44 | 53.25932 | -1.93254 | 34057 ft | 408 kts | 295° |
| 2026-05-05 20:45 | 53.29714 | -2.05973 | 34048 ft | 408 kts | 295° |
| 2026-05-05 20:45 | 53.32240 | -2.14472 | 34043 ft | 408 kts | 295° |
| 2026-05-05 20:46 | 53.34755 | -2.22989 | 34044 ft | 408 kts | 295° |
| 2026-05-05 20:46 | 53.36821 | -2.32026 | 34061 ft | 420 kts | 286° |
| 2026-05-05 20:47 | 53.38604 | -2.41385 | 34050 ft | 423 kts | 286° |
| 2026-05-05 20:47 | 53.39499 | -2.46079 | 33378 ft | 423 kts | 286° |
| 2026-05-05 20:47 | 53.40389 | -2.50764 | 32701 ft | 421 kts | 286° |
| 2026-05-05 20:48 | 53.41270 | -2.55424 | 32095 ft | 417 kts | 286° |
| 2026-05-05 20:48 | 53.42137 | -2.60036 | 31542 ft | 413 kts | 285° |
| 2026-05-05 20:48 | 53.42993 | -2.64604 | 31047 ft | 408 kts | 285° |
| 2026-05-05 20:48 | 53.43837 | -2.69114 | 30530 ft | 404 kts | 285° |
| 2026-05-05 20:49 | 53.44676 | -2.73590 | 30004 ft | 400 kts | 285° |
| 2026-05-05 20:49 | 53.45506 | -2.78020 | 29408 ft | 396 kts | 285° |
| 2026-05-05 20:49 | 53.46328 | -2.82409 | 28812 ft | 391 kts | 285° |
| 2026-05-05 20:49 | 53.47133 | -2.86720 | 27859 ft | 384 kts | 285° |
| 2026-05-05 20:50 | 53.47922 | -2.90967 | 26936 ft | 378 kts | 285° |
| 2026-05-05 20:50 | 53.48695 | -2.95156 | 26135 ft | 371 kts | 285° |
| 2026-05-05 20:50 | 53.49440 | -2.99203 | 25691 ft | 355 kts | 285° |
| 2026-05-05 20:50 | 53.50155 | -3.03088 | 25243 ft | 341 kts | 285° |
| 2026-05-05 20:51 | 53.50844 | -3.06829 | 24806 ft | 328 kts | 285° |
| 2026-05-05 20:51 | 53.51503 | -3.10421 | 24381 ft | 316 kts | 285° |
| 2026-05-05 20:51 | 53.52139 | -3.13892 | 23962 ft | 307 kts | 286° |
| 2026-05-05 20:51 | 53.52767 | -3.17326 | 23534 ft | 307 kts | 286° |
| 2026-05-05 20:52 | 53.53402 | -3.20810 | 23078 ft | 308 kts | 286° |
| 2026-05-05 20:52 | 53.54025 | -3.24232 | 22661 ft | 305 kts | 286° |
| 2026-05-05 20:52 | 53.54642 | -3.27637 | 22254 ft | 303 kts | 286° |
| 2026-05-05 20:52 | 53.55253 | -3.31027 | 21859 ft | 302 kts | 286° |
| 2026-05-05 20:53 | 53.55858 | -3.34391 | 21457 ft | 300 kts | 286° |
| 2026-05-05 20:53 | 53.56462 | -3.37748 | 21071 ft | 299 kts | 286° |
| 2026-05-05 20:53 | 53.57067 | -3.41088 | 20666 ft | 298 kts | 286° |
| 2026-05-05 20:53 | 53.57721 | -3.44385 | 20275 ft | 297 kts | 292° |
| 2026-05-05 20:54 | 53.58716 | -3.47434 | 19887 ft | 298 kts | 304° |
| 2026-05-05 20:54 | 53.59919 | -3.50264 | 19498 ft | 297 kts | 304° |
| 2026-05-05 20:54 | 53.61120 | -3.53101 | 19108 ft | 297 kts | 304° |
| 2026-05-05 20:54 | 53.62317 | -3.55942 | 18732 ft | 298 kts | 304° |
| 2026-05-05 20:55 | 53.63514 | -3.58789 | 18338 ft | 298 kts | 304° |
| 2026-05-05 20:55 | 53.64712 | -3.61641 | 17923 ft | 298 kts | 304° |
| 2026-05-05 20:55 | 53.65910 | -3.64495 | 17388 ft | 301 kts | 304° |
| 2026-05-05 20:55 | 53.67126 | -3.67397 | 16777 ft | 303 kts | 304° |
| 2026-05-05 20:56 | 53.68337 | -3.70294 | 16398 ft | 302 kts | 304° |
| 2026-05-05 20:56 | 53.69544 | -3.73185 | 16039 ft | 300 kts | 304° |
| 2026-05-05 20:56 | 53.70761 | -3.76100 | 15670 ft | 299 kts | 304° |
| 2026-05-05 20:56 | 53.71954 | -3.78961 | 15317 ft | 298 kts | 304° |
| 2026-05-05 20:57 | 53.73142 | -3.81813 | 14971 ft | 296 kts | 304° |
| 2026-05-05 20:57 | 53.74324 | -3.84658 | 14619 ft | 295 kts | 304° |
| 2026-05-05 20:57 | 53.75497 | -3.87486 | 14270 ft | 294 kts | 304° |
| 2026-05-05 20:57 | 53.76668 | -3.90317 | 13921 ft | 293 kts | 304° |
| 2026-05-05 20:58 | 53.77834 | -3.93134 | 13545 ft | 292 kts | 304° |
| 2026-05-05 20:58 | 53.78994 | -3.95942 | 13187 ft | 290 kts | 304° |
| 2026-05-05 20:58 | 53.80146 | -3.98724 | 12839 ft | 288 kts | 304° |
| 2026-05-05 20:58 | 53.81290 | -4.01486 | 12487 ft | 286 kts | 305° |
| 2026-05-05 20:59 | 53.82425 | -4.04231 | 12134 ft | 284 kts | 305° |
| 2026-05-05 20:59 | 53.83553 | -4.06964 | 11782 ft | 282 kts | 305° |
| 2026-05-05 20:59 | 53.84671 | -4.09684 | 11438 ft | 280 kts | 305° |
| 2026-05-05 20:59 | 53.85781 | -4.12388 | 11074 ft | 279 kts | 305° |
| 2026-05-05 21:00 | 53.86887 | -4.15079 | 10717 ft | 278 kts | 305° |
| 2026-05-05 21:00 | 53.87987 | -4.17758 | 10361 ft | 276 kts | 305° |
| 2026-05-05 21:00 | 53.89084 | -4.20434 | 9960 ft | 276 kts | 305° |
| 2026-05-05 21:00 | 53.90178 | -4.23107 | 9570 ft | 275 kts | 305° |
| 2026-05-05 21:01 | 53.91263 | -4.25762 | 9176 ft | 274 kts | 305° |
| 2026-05-05 21:01 | 53.92342 | -4.28409 | 8785 ft | 272 kts | 305° |
| 2026-05-05 21:01 | 53.93416 | -4.31041 | 8395 ft | 271 kts | 304° |
| 2026-05-05 21:01 | 53.94330 | -4.33823 | 7971 ft | 270 kts | 292° |
| 2026-05-05 21:02 | 53.95065 | -4.36826 | 7460 ft | 273 kts | 292° |
| 2026-05-05 21:02 | 53.95794 | -4.39819 | 6941 ft | 273 kts | 292° |
| 2026-05-05 21:02 | 53.96511 | -4.42761 | 6453 ft | 269 kts | 292° |
| 2026-05-05 21:02 | 53.97233 | -4.45719 | 5910 ft | 273 kts | 292° |
| 2026-05-05 21:03 | 53.97964 | -4.48711 | 5389 ft | 275 kts | 292° |
| 2026-05-05 21:03 | 53.98694 | -4.51704 | 4860 ft | 274 kts | 292° |
| 2026-05-05 21:03 | 53.99424 | -4.54697 | 4279 ft | 271 kts | 293° |
| 2026-05-05 21:03 | 54.00135 | -4.57621 | 3707 ft | 263 kts | 294° |
| 2026-05-05 21:04 | 54.00824 | -4.60465 | 3275 ft | 254 kts | 294° |
| 2026-05-05 21:04 | 54.01461 | -4.63105 | 3225 ft | 230 kts | 295° |
| 2026-05-05 21:04 | 54.02052 | -4.65555 | 3145 ft | 219 kts | 295° |
| 2026-05-05 21:04 | 54.02615 | -4.67886 | 3043 ft | 208 kts | 295° |
| 2026-05-05 21:05 | 54.03147 | -4.70086 | 2950 ft | 194 kts | 295° |
| 2026-05-05 21:05 | 54.03759 | -4.72014 | 2808 ft | 176 kts | 316° |
| 2026-05-05 21:05 | 54.04692 | -4.73039 | 2740 ft | 149 kts | 344° |
| 2026-05-05 21:05 | 54.05668 | -4.73213 | 2441 ft | 139 kts | 9° |
| 2026-05-05 21:06 | 54.06566 | -4.72615 | 2043 ft | 138 kts | 35° |
| 2026-05-05 21:06 | 54.07160 | -4.71346 | 1614 ft | 141 kts | 63° |
| 2026-05-05 21:06 | 54.07374 | -4.69685 | 1182 ft | 145 kts | 77° |
| 2026-05-05 21:06 | 54.07567 | -4.67978 | 744 ft | 146 kts | 72° |
| 2026-05-05 21:07 | 54.07814 | -4.66352 | 436 ft | 138 kts | 70° |
| 2026-05-05 21:07 | 54.08021 | -4.64804 | 236 ft | 132 kts | 75° |
| 2026-05-05 21:07 | 54.08210 | -4.63301 | 49 ft | 126 kts | 74° |
| 2026-05-05 21:07 | 54.08369 | -4.62073 | 41 ft | 83 kts | 77° |
| 2026-05-05 21:08 | 54.08453 | -4.61402 | 40 ft | 33 kts | 78° |
| 2026-05-05 21:08 | 54.08475 | -4.61206 | 41 ft | 14 kts | 80° |
| 2026-05-05 21:08 | 54.08493 | -4.61029 | 39 ft | 16 kts | 80° |
| 2026-05-05 21:08 | 54.08516 | -4.60838 | 42 ft | 15 kts | 72° |
| 2026-05-05 21:09 | 54.08561 | -4.60770 | 40 ft | 10 kts | 4° |
| 2026-05-05 21:09 | 54.08608 | -4.60778 | 38 ft | 11 kts | 345° |
| 2026-05-05 21:09 | 54.08664 | -4.60872 | 42 ft | 12 kts | 292° |
| 2026-05-05 21:09 | 54.08664 | -4.61007 | 42 ft | 11 kts | 260° |
| 2026-05-05 21:10 | 54.08649 | -4.61125 | 42 ft | 10 kts | 257° |
| 2026-05-05 21:10 | 54.08634 | -4.61238 | 42 ft | 13 kts | 258° |
| 2026-05-05 21:10 | 54.08604 | -4.61477 | 40 ft | 21 kts | 258° |
| 2026-05-05 21:10 | 54.08593 | -4.61570 | 39 ft | 0 kts | 257° |
| 2026-05-05 21:11 | 54.08578 | -4.61686 | 42 ft | 14 kts | 258° |
| 2026-05-05 21:11 | 54.08559 | -4.61836 | 43 ft | 12 kts | 258° |
| 2026-05-05 21:11 | 54.08541 | -4.61979 | 46 ft | 17 kts | 258° |
| 2026-05-05 21:12 | 54.08508 | -4.62237 | 49 ft | 25 kts | 257° |
| 2026-05-05 21:12 | 54.08471 | -4.62529 | 47 ft | 27 kts | 258° |
| 2026-05-05 21:12 | 54.08432 | -4.62865 | 42 ft | 30 kts | 259° |
| 2026-05-05 21:12 | 54.08401 | -4.63128 | 43 ft | 15 kts | 263° |
| 2026-05-05 21:13 | 54.08430 | -4.63287 | 43 ft | 13 kts | 293° |
| 2026-05-05 21:13 | 54.08472 | -4.63351 | 46 ft | 6 kts | 356° |
| 2026-05-05 21:13 | 54.08509 | -4.63331 | 46 ft | 6 kts | 12° |
| 2026-05-05 21:13 | 54.08546 | -4.63301 | 46 ft | 6 kts | 41° |
| 2026-05-05 21:14 | 54.08562 | -4.63274 | 46 ft | 0 kts | 46° |